Map

Track Data

SID SEASON NUMBER BASIN SUBBASIN NAME ISO_TIME NATURE LAT LON WMO_WIND WMO_PRES WMO_AGENCY TRACK_TYPE DIST2LAND LANDFALL IFLAG USA_AGENCY USA_ATCF_ID USA_LAT USA_LON USA_RECORD USA_STATUS USA_WIND USA_PRES USA_SSHS USA_R34_NE USA_R34_SE USA_R34_SW USA_R34_NW USA_R50_NE USA_R50_SE USA_R50_SW USA_R50_NW USA_R64_NE USA_R64_SE USA_R64_SW USA_R64_NW USA_POCI USA_ROCI USA_RMW USA_EYE TOKYO_LAT TOKYO_LON TOKYO_GRADE TOKYO_WIND TOKYO_PRES TOKYO_R50_DIR TOKYO_R50_LONG TOKYO_R50_SHORT TOKYO_R30_DIR TOKYO_R30_LONG TOKYO_R30_SHORT TOKYO_LAND CMA_LAT CMA_LON CMA_CAT CMA_WIND CMA_PRES HKO_LAT HKO_LON HKO_CAT HKO_WIND HKO_PRES NEWDELHI_LAT NEWDELHI_LON NEWDELHI_GRADE NEWDELHI_WIND NEWDELHI_PRES NEWDELHI_CI NEWDELHI_DP NEWDELHI_POCI REUNION_LAT REUNION_LON REUNION_TYPE REUNION_WIND REUNION_PRES REUNION_TNUM REUNION_CI REUNION_RMW REUNION_R34_NE REUNION_R34_SE REUNION_R34_SW REUNION_R34_NW REUNION_R50_NE REUNION_R50_SE REUNION_R50_SW REUNION_R50_NW REUNION_R64_NE REUNION_R64_SE REUNION_R64_SW REUNION_R64_NW BOM_LAT BOM_LON BOM_TYPE BOM_WIND BOM_PRES BOM_TNUM BOM_CI BOM_RMW BOM_R34_NE BOM_R34_SE BOM_R34_SW BOM_R34_NW BOM_R50_NE BOM_R50_SE BOM_R50_SW BOM_R50_NW BOM_R64_NE BOM_R64_SE BOM_R64_SW BOM_R64_NW BOM_ROCI BOM_POCI BOM_EYE BOM_POS_METHOD BOM_PRES_METHOD NADI_LAT NADI_LON NADI_CAT NADI_WIND NADI_PRES WELLINGTON_LAT WELLINGTON_LON WELLINGTON_WIND WELLINGTON_PRES DS824_LAT DS824_LON DS824_STAGE DS824_WIND DS824_PRES TD9636_LAT TD9636_LON TD9636_STAGE TD9636_WIND TD9636_PRES TD9635_LAT TD9635_LON TD9635_WIND TD9635_PRES TD9635_ROCI NEUMANN_LAT NEUMANN_LON NEUMANN_CLASS NEUMANN_WIND NEUMANN_PRES MLC_LAT MLC_LON MLC_CLASS MLC_WIND MLC_PRES USA_GUST BOM_GUST BOM_GUST_PER REUNION_GUST REUNION_GUST_PER USA_SEAHGT USA_SEARAD_NE USA_SEARAD_SE USA_SEARAD_SW USA_SEARAD_NW STORM_SPEED STORM_DIR
2011280N10268 2011 77 EP MM NOT_NAMED 2011-10-06 18:00:00 DS 9.70000 -91.7000 20 1009 hurdat_epa main 472 454 O_____________ hurdat_epa EP122011 9.70000 -91.7000 LO 20 1009 -3 9 295
2011280N10268 2011 77 EP MM NOT_NAMED 2011-10-06 21:00:00 DS 9.88509 -92.1000 main 456 442 P_____________ EP122011 9.88509 -92.1000 LO 20 1008 -3 9 297
2011280N10268 2011 77 EP MM NOT_NAMED 2011-10-07 00:00:00 DS 10.1000 -92.5000 20 1008 hurdat_epa main 445 430 O_____________ hurdat_epa EP122011 10.1000 -92.5000 LO 20 1008 -3 1010 125 60 9 301
2011280N10268 2011 77 EP MM NOT_NAMED 2011-10-07 03:00:00 DS 10.3575 -92.9000 main 428 423 P_____________ EP122011 10.3575 -92.9000 LO 20 1008 -3 1010 125 60 9 302
2011280N10268 2011 77 EP MM NOT_NAMED 2011-10-07 06:00:00 DS 10.6000 -93.3000 20 1008 hurdat_epa main 428 424 O_____________ hurdat_epa EP122011 10.6000 -93.3000 LO 20 1008 -3 1010 125 60 9 298
2011280N10268 2011 77 EP MM NOT_NAMED 2011-10-07 09:00:00 DS 10.7724 -93.6926 main 433 433 P_____________ EP122011 10.7724 -93.6926 LO 20 1008 -3 1010 125 60 8 291
2011280N10268 2011 77 EP MM NOT_NAMED 2011-10-07 12:00:00 DS 10.9000 -94.1000 20 1008 hurdat_epa main 446 446 O_____________ hurdat_epa EP122011 10.9000 -94.1000 LO 20 1008 -3 1010 125 60 9 286
2011280N10268 2011 77 EP MM NOT_NAMED 2011-10-07 15:00:00 DS 11.0150 -94.5425 main 462 462 P_____________ EP122011 11.0150 -94.5425 LO 20 1007 -3 1010 125 60 9 283
2011280N10268 2011 77 EP MM NOT_NAMED 2011-10-07 18:00:00 DS 11.1000 -95.0000 20 1007 hurdat_epa main 487 487 O_____________ hurdat_epa EP122011 11.1000 -95.0000 LO 20 1007 -3 1010 125 60 9 280
2011280N10268 2011 77 EP MM NOT_NAMED 2011-10-07 21:00:00 DS 11.1725 -95.4800 main 506 498 P_____________ EP122011 11.1725 -95.4800 LO 20 1007 -3 1010 137 60 9 276
2011280N10268 2011 77 EP MM NOT_NAMED 2011-10-08 00:00:00 DS 11.2000 -95.9000 20 1007 hurdat_epa main 498 494 O_____________ hurdat_epa EP122011 11.2000 -95.9000 LO 20 1007 -3 1010 150 60 7 270
2011280N10268 2011 77 EP MM NOT_NAMED 2011-10-08 03:00:00 DS 11.1724 -96.2100 main 494 493 P_____________ EP122011 11.1724 -96.2100 LO 20 1007 -3 1010 150 60 5 258
2011280N10268 2011 77 EP MM NOT_NAMED 2011-10-08 06:00:00 DS 11.1000 -96.4000 20 1007 hurdat_epa main 504 503 O_____________ hurdat_epa EP122011 11.1000 -96.4000 LO 20 1007 -3 1010 150 60 3 239
2011280N10268 2011 77 EP MM NOT_NAMED 2011-10-08 09:00:00 DS 11.0000 -96.5025 main 515 515 P_____________ EP122011 11.0000 -96.5025 LO 20 1007 -3 1010 150 55 2 207
2011280N10268 2011 77 EP MM NOT_NAMED 2011-10-08 12:00:00 DS 10.9000 -96.5000 20 1007 hurdat_epa main 526 526 O_____________ hurdat_epa EP122011 10.9000 -96.5000 LO 20 1007 -3 1010 150 50 35 2 155
2011280N10268 2011 77 EP MM NOT_NAMED 2011-10-08 15:00:00 DS 10.8350 -96.4225 main 537 537 P_____________ EP122011 10.8350 -96.4225 LO 20 1007 -3 1010 150 50 2 117
2011280N10268 2011 77 EP MM NOT_NAMED 2011-10-08 18:00:00 DS 10.8000 -96.3000 20 1007 hurdat_epa main 538 538 O_____________ hurdat_epa EP122011 10.8000 -96.3000 LO 20 1007 -3 1010 150 50 2 101
2011280N10268 2011 77 EP MM NOT_NAMED 2011-10-08 21:00:00 DS 10.7925 -96.2000 main 539 539 P_____________ EP122011 10.7925 -96.2000 LO 20 1006 -3 1009 162 45 2 90
2011280N10268 2011 77 EP MM NOT_NAMED 2011-10-09 00:00:00 DS 10.8000 -96.1000 20 1006 hurdat_epa main 540 540 O_____________ hurdat_epa EP122011 10.8000 -96.1000 LO 20 1006 -3 1009 175 40 35 2 90
2011280N10268 2011 77 EP MM NOT_NAMED 2011-10-09 03:00:00 DS 10.7925 -96.0000 main 541 541 P_____________ EP122011 10.7925 -96.0000 LO 20 1006 -3 1009 175 40 2 90
2011280N10268 2011 77 EP MM NOT_NAMED 2011-10-09 06:00:00 DS 10.8000 -95.9000 20 1006 hurdat_epa main 542 542 O_____________ hurdat_epa EP122011 10.8000 -95.9000 LO 20 1006 -3 1009 175 40 30 2 78
2011280N10268 2011 77 EP MM NOT_NAMED 2011-10-09 09:00:00 DS 10.8350 -95.8000 main 544 533 P_____________ EP122011 10.8350 -95.8000 LO 22 1006 -3 1009 175 40 2 63
2011280N10268 2011 77 EP MM NOT_NAMED 2011-10-09 12:00:00 DS 10.9000 -95.7000 25 1006 hurdat_epa main 535 526 O_____________ hurdat_epa EP122011 10.9000 -95.7000 LO 25 1006 -3 1009 175 40 35 3 50
2011280N10268 2011 77 EP MM NOT_NAMED 2011-10-09 15:00:00 DS 11.0000 -95.6000 main 526 517 P_____________ EP122011 11.0000 -95.6000 LO 25 1006 -3 1009 175 40 3 45
2011280N10268 2011 77 EP MM NOT_NAMED 2011-10-09 18:00:00 DS 11.1000 -95.5000 25 1006 hurdat_epa main 517 506 O_____________ hurdat_epa EP122011 11.1000 -95.5000 LO 25 1006 -3 1009 175 40 35 2 50
2011280N10268 2011 77 EP MM NOT_NAMED 2011-10-09 21:00:00 DS 11.1575 -95.4075 main 506 499 P_____________ EP122011 11.1575 -95.4075 LO 25 1006 -3 1009 175 40 2 63
2011280N10268 2011 77 EP MM NOT_NAMED 2011-10-10 00:00:00 DS 11.2000 -95.3000 25 1006 hurdat_epa main 499 492 O_____________ hurdat_epa EP122011 11.2000 -95.3000 LO 25 1006 -3 1009 175 40 35 3 71
2011280N10268 2011 77 EP MM NOT_NAMED 2011-10-10 03:00:00 DS 11.2425 -95.1575 main 492 469 P_____________ EP122011 11.2425 -95.1575 LO 25 1005 -3 1009 175 50 3 71
2011280N10268 2011 77 EP MM NOT_NAMED 2011-10-10 06:00:00 DS 11.3000 -95.0000 25 1005 hurdat_epa main 469 454 O_____________ hurdat_epa EP122011 11.3000 -95.0000 LO 25 1005 -3 1009 175 60 3 64
2011280N10268 2011 77 EP MM NOT_NAMED 2011-10-10 09:00:00 DS 11.3925 -94.8425 main 447 431 P_____________ EP122011 11.3925 -94.8425 LO 25 1005 -3 1009 175 70 4 56
2011280N10268 2011 77 EP MM NOT_NAMED 2011-10-10 12:00:00 DS 11.5000 -94.7000 25 1005 hurdat_epa main 431 416 O_____________ hurdat_epa EP122011 11.5000 -94.7000 LO 25 1005 -3 1009 175 80 3 50
2011280N10268 2011 77 EP MM NOT_NAMED 2011-10-10 15:00:00 DS 11.6000 -94.5925 main 416 400 P_____________ EP122011 11.6000 -94.5925 LO 25 1005 -3 1009 175 70 3 45
2011280N10268 2011 77 EP MM NOT_NAMED 2011-10-10 18:00:00 DS 11.7000 -94.5000 25 1005 hurdat_epa main 400 384 O_____________ hurdat_epa EP122011 11.7000 -94.5000 LO 25 1005 -3 1009 175 60 3 45
2011280N10268 2011 77 EP MM NOT_NAMED 2011-10-10 21:00:00 DS 11.7925 -94.4000 main 384 369 P_____________ EP122011 11.7925 -94.4000 LO 25 1005 -3 1009 175 60 3 44
2011280N10268 2011 77 EP MM NOT_NAMED 2011-10-11 00:00:00 DS 11.9000 -94.3000 25 1005 hurdat_epa main 369 353 O_____________ hurdat_epa EP122011 11.9000 -94.3000 LO 25 1005 -3 1009 175 60 3 39
2011280N10268 2011 77 EP MM NOT_NAMED 2011-10-11 03:00:00 DS 12.0350 -94.2000 main 353 329 P_____________ EP122011 12.0350 -94.2000 LO 25 1005 -3 1009 175 60 4 33
2011280N10268 2011 77 EP MM NOT_NAMED 2011-10-11 06:00:00 DS 12.2000 -94.1000 25 1005 hurdat_epa main 329 305 O_____________ hurdat_epa EP122011 12.2000 -94.1000 LO 25 1005 -3 1009 175 60 4 30
2011280N10268 2011 77 EP MM NOT_NAMED 2011-10-11 09:00:00 DS 12.3850 -93.9925 main 305 281 P_____________ EP122011 12.3850 -93.9925 LO 25 1005 -3 1009 175 60 4 26
2011280N10268 2011 77 EP MM NOT_NAMED 2011-10-11 12:00:00 DS 12.6000 -93.9000 25 1005 hurdat_epa main 281 257 O_____________ hurdat_epa EP122011 12.6000 -93.9000 LO 25 1005 -3 1009 175 60 5 19
2011280N10268 2011 77 EP MM NOT_NAMED 2011-10-11 15:00:00 DS 12.8200 -93.8350 main 257 233 P_____________ EP122011 12.8200 -93.8350 LO 27 1005 -3 1009 175 60 5 11
2011280N10268 2011 77 EP MM NOT_NAMED 2011-10-11 18:00:00 DS 13.1000 -93.8000 30 1005 hurdat_epa main 233 209 O_____________ hurdat_epa EP122011 13.1000 -93.8000 LO 30 1005 -3 1010 175 60 7 5
2011280N10268 2011 77 EP MM NOT_NAMED 2011-10-11 21:00:00 DS 13.4700 -93.7850 main 202 170 P_____________ EP122011 13.4700 -93.7850 LO 30 1004 -3 1009 187 60 8 1
2011280N10268 2011 77 EP MM NOT_NAMED 2011-10-12 00:00:00 TS 13.9000 -93.8000 30 1004 hurdat_epa main 170 139 O_____________ hurdat_epa EP122011 13.9000 -93.8000 TD 30 1004 -1 1009 200 60 9 357
2011280N10268 2011 77 EP MM NOT_NAMED 2011-10-12 03:00:00 TS 14.3425 -93.8350 main 139 108 P_____________ EP122011 14.3425 -93.8350 TD 30 1004 -1 1009 162 75 9 354
2011280N10268 2011 77 EP MM NOT_NAMED 2011-10-12 06:00:00 TS 14.8000 -93.9000 30 1004 hurdat_epa main 108 84 O_____________ hurdat_epa EP122011 14.8000 -93.9000 TD 30 1004 -1 1009 125 90 40 9 350
2011280N10268 2011 77 EP MM NOT_NAMED 2011-10-12 09:00:00 TS 15.2637 -94.0110 main 74 35 P_____________ EP122011 15.2637 -94.0110 TD 30 1004 -1 1009 125 90 9 348
2011280N10268 2011 77 EP MM NOT_NAMED 2011-10-12 12:00:00 TS 15.7000 -94.1000 30 1005 hurdat_epa main 35 0 O_____________ hurdat_epa EP122011 15.7000 -94.1000 TD 30 1005 -1 1009 125 90 40 12 30 180 150 30 8 354
2011280N10268 2011 77 EP MM NOT_NAMED 2011-10-12 15:00:00 TS 16.0877 -94.1036 main 0 0 P_____________ EP122011 16.0877 -94.1036 TD 30 1005 -1 1009 112 90 8 2
2011280N10268 2011 77 EP MM NOT_NAMED 2011-10-12 16:00:00 TS 16.2000 -94.1000 30 1005 hurdat_epa main 0 0 V_____________ hurdat_epa EP122011 16.2000 -94.1000 L TD 30 1005 -1 1009 108 90 6 0
2011280N10268 2011 77 EP MM NOT_NAMED 2011-10-12 18:00:00 TS 16.4000 -94.1000 30 1006 hurdat_epa main 0 0 O_____________ hurdat_epa EP122011 16.4000 -94.1000 TD 30 1006 -1 1010 100 90 40 6 9
2011280N10268 2011 77 EP MM NOT_NAMED 2011-10-12 21:00:00 TS 16.6608 -94.0288 main 0 0 P_____________ EP122011 16.6608 -94.0288 TD 25 1006 -1 1010 100 90 5 21
2011280N10268 2011 77 EP MM NOT_NAMED 2011-10-13 00:00:00 DS 16.9000 -93.9000 20 1007 hurdat_epa main 0 O_____________ hurdat_epa EP122011 16.9000 -93.9000 LO 20 1007 -3 1010 100 90 35 5 28

About IBTrACS Database

This database is a web-friendly format of International Best Track Archive for Climate Stewardship (IBTrACS), a global best track data archive curated by NOAA dating back to 1842.

Updated: 2021-11-26